^^
Lisbon, NH - Weather Station Historical Data
Daily Summary for June 23, 2021 Units:  English    Metric   Both
Daily Weekly Monthly Yearly
  High: Low: Average:
Temperature: 68.7 °F 45.8 °F 58.6 °F
Dew Point: 53.3 °F 41.6 °F 46.8 °F
Humidity: 100% 38.2% 69%
Wind Speed: 3.7mph 0mph 0.6mph
Wind Gust: 11mph - -
Wind- - SSE
Pressure: 30.25 in 29.84 in -
Precipitation: 0.00 in    
 
 
Tabular Data for June 23, 2021
Time Temperature Dew Point Pressure Wind Wind Speed Wind Gust Humidity Rainfall Rate (Hourly) solar
00:04 56 °F 49.4 °F 29.84 in ENE 1.2 mph 3 mph 78.5% 0.00 in 0 W/m2
00:09 56 °F 49.6 °F 29.84 in NE 1.1 mph 3 mph 79% 0.00 in 0 W/m2
00:14 56 °F 49.5 °F 29.84 in ENE 0.1 mph 2 mph 78.7% 0.00 in 0 W/m2
00:19 56 °F 49.6 °F 29.84 in ENE 0.1 mph 1 mph 79% 0.00 in 0 W/m2
00:24 55.9 °F 49.6 °F 29.84 in East 0.4 mph 2 mph 79.4% 0.00 in 0 W/m2
00:29 55.9 °F 49.4 °F 29.84 in ENE 0.6 mph 1 mph 79% 0.00 in 0 W/m2
00:34 55.9 °F 49.5 °F 29.84 in ENE 0.9 mph 2 mph 79% 0.00 in 0 W/m2
00:39 55.9 °F 49.2 °F 29.84 in SE 0.9 mph 6 mph 78% 0.00 in 0 W/m2
00:44 55.9 °F 49.4 °F 29.85 in NNE 0.6 mph 6 mph 78.6% 0.00 in 0 W/m2
00:49 55.8 °F 49.4 °F 29.85 in Calm     79% 0.00 in 0 W/m2
00:54 55.7 °F 49.3 °F 29.85 in ENE 0.1 mph 2 mph 79% 0.00 in 0 W/m2
00:59 55.7 °F 49.3 °F 29.85 in Calm     79% 0.00 in 0 W/m2
01:04 55.7 °F 49.5 °F 29.85 in ENE 0.1 mph 1 mph 79.6% 0.00 in 0 W/m2
01:09 55.6 °F 49.4 °F 29.85 in South 0.2 mph 2 mph 79.7% 0.00 in 0 W/m2
01:14 55.4 °F 49.4 °F 29.85 in SE 0.6 mph 2 mph 80% 0.00 in 0 W/m2
01:19 55.4 °F 49 °F 29.85 in ESE 0.4 mph 2 mph 79% 0.00 in 0 W/m2
01:24 55.6 °F 49.4 °F 29.85 in ESE 0.2 mph 2 mph 79.7% 0.00 in 0 W/m2
01:29 55.5 °F 49.6 °F 29.86 in East 0.2 mph 2 mph 80.5% 0.00 in 0 W/m2
01:34 55.4 °F 49.3 °F 29.86 in ENE 0.2 mph 2 mph 80% 0.00 in 0 W/m2
01:39 55.2 °F 48.9 °F 29.86 in Calm     79.2% 0.00 in 0 W/m2
01:44 55.1 °F 49.3 °F 29.86 in Calm     80.8% 0.00 in 0 W/m2
01:49 54.8 °F 49.6 °F 29.86 in Calm     82.6% 0.00 in 0 W/m2
01:54 54.6 °F 49.8 °F 29.86 in ENE 0.1 mph 1 mph 84.1% 0.00 in 0 W/m2
01:59 54.1 °F 49.7 °F 29.86 in ENE 0.1 mph 1 mph 85% 0.00 in 0 W/m2
02:04 53.7 °F 49.5 °F 29.86 in Calm     85.9% 0.00 in 0 W/m2
02:09 53.3 °F 49.5 °F 29.86 in Calm     87.1% 0.00 in 0 W/m2
02:14 52.9 °F 49.5 °F 29.86 in Calm     88.1% 0.00 in 0 W/m2
02:19 52.5 °F 49.4 °F 29.86 in Calm     89% 0.00 in 0 W/m2
02:24 52.1 °F 49.1 °F 29.86 in Calm     89.5% 0.00 in 0 W/m2
02:29 51.7 °F 49 °F 29.86 in Calm     90.3% 0.00 in 0 W/m2
02:34 51.4 °F 48.9 °F 29.86 in Calm     91% 0.00 in 0 W/m2
02:39 51 °F 48.5 °F 29.86 in Calm     91.1% 0.00 in 0 W/m2
02:44 50.7 °F 48.5 °F 29.87 in Calm     92% 0.00 in 0 W/m2
02:49 50.4 °F 48.3 °F 29.87 in Calm     92.4% 0.00 in 0 W/m2
02:54 50.1 °F 48.2 °F 29.87 in Calm     93% 0.00 in 0 W/m2
02:59 49.9 °F 47.9 °F 29.87 in Calm     93% 0.00 in 0 W/m2
03:04 49.6 °F 47.9 °F 29.87 in Calm     93.8% 0.00 in 0 W/m2
03:09 49.4 °F 47.8 °F 29.87 in Calm     94% 0.00 in 0 W/m2
03:14 49.3 °F 47.9 °F 29.88 in Calm     94.9% 0.00 in 0 W/m2
03:19 49.1 °F 47.7 °F 29.88 in Calm     95% 0.00 in 0 W/m2
03:24 48.8 °F 47.4 °F 29.88 in Calm     95% 0.00 in 0 W/m2
03:29 48.5 °F 47.3 °F 29.88 in Calm     95.5% 0.00 in 0 W/m2
03:34 48.3 °F 47.2 °F 29.88 in Calm     96% 0.00 in 0 W/m2
03:39 48.1 °F 47 °F 29.88 in Calm     96% 0.00 in 0 W/m2
03:44 47.9 °F 46.8 °F 29.89 in Calm     96% 0.00 in 0 W/m2
03:49 47.7 °F 46.7 °F 29.89 in Calm     96.3% 0.00 in 0 W/m2
03:54 47.6 °F 46.8 °F 29.89 in Calm     97% 0.00 in 0 W/m2
03:59 47.4 °F 46.6 °F 29.90 in Calm     97% 0.00 in 0 W/m2
04:04 47.3 °F 46.5 °F 29.90 in Calm     97% 0.00 in 0 W/m2
04:09 47.3 °F 46.8 °F 29.90 in Calm     98% 0.00 in 0 W/m2
04:14 47.3 °F 46.8 °F 29.91 in Calm     98% 0.00 in 0 W/m2
04:19 47.2 °F 46.6 °F 29.91 in Calm     98% 0.00 in 0 W/m2
04:24 47 °F 46.5 °F 29.91 in Calm     98% 0.00 in 0 W/m2
04:29 46.9 °F 46.4 °F 29.92 in ESE 0.1 mph 1 mph 98% 0.00 in 0 W/m2
04:34 46.8 °F 46.4 °F 29.92 in Calm   1 mph 98.4% 0.00 in 0 W/m2
04:39 46.7 °F 46.4 °F 29.92 in Calm     99% 0.00 in 0 W/m2
04:44 46.5 °F 46.3 °F 29.93 in Calm     99% 0.00 in 0 W/m2
04:49 46.5 °F 46.2 °F 29.93 in Calm     99% 0.00 in 0 W/m2
04:54 46.4 °F 46.1 °F 29.93 in Calm     99% 0.00 in 0 W/m2
04:59 46.2 °F 45.9 °F 29.94 in Calm     99% 0.00 in 0 W/m2
05:04 46.1 °F 45.9 °F 29.94 in Calm     99% 0.00 in 5 W/m2
05:09 46.1 °F 45.8 °F 29.94 in Calm     99% 0.00 in 5 W/m2
05:14 46 °F 45.9 °F 29.96 in Calm     99.8% 0.00 in 7 W/m2
05:19 45.8 °F 45.8 °F 29.96 in Calm     100% 0.00 in 9 W/m2
05:24 45.8 °F 45.8 °F 29.96 in Calm     100% 0.00 in 12 W/m2
05:29 45.9 °F 45.9 °F 29.97 in ESE 0.3 mph 1 mph 100% 0.00 in 33 W/m2
05:34 46 °F 46 °F 29.97 in Calm   1 mph 100% 0.00 in 55 W/m2
05:39 46.2 °F 46.2 °F 29.97 in Calm     100% 0.00 in 55 W/m2
05:44 46.3 °F 46.3 °F 29.98 in Calm     100% 0.00 in 53 W/m2
05:49 46.5 °F 46.5 °F 29.98 in Calm     100% 0.00 in 53 W/m2
05:54 46.7 °F 46.7 °F 29.98 in Calm     100% 0.00 in 111 W/m2
05:59 47 °F 47 °F 29.99 in ESE 0.3 mph 1 mph 100% 0.00 in 118 W/m2
06:04 47.4 °F 47.4 °F 29.99 in Calm   1 mph 100% 0.00 in 137 W/m2
06:09 47.7 °F 47.7 °F 29.99 in ESE 0.4 mph 1 mph 100% 0.00 in 155 W/m2
06:14 48 °F 48 °F 29.99 in SE 0.4 mph 2 mph 100% 0.00 in 169 W/m2
06:19 48 °F 48 °F 29.99 in SE 0.3 mph 2 mph 100% 0.00 in 187 W/m2
06:24 48.1 °F 48.1 °F 29.99 in SE 0.2 mph 1 mph 100% 0.00 in 201 W/m2
06:29 48.7 °F 48.7 °F 29.99 in ESE 0.4 mph 1 mph 100% 0.00 in 216 W/m2
06:34 49.3 °F 49.3 °F 29.99 in Calm   1 mph 100% 0.00 in 232 W/m2
06:39 49.9 °F 49.8 °F 29.99 in Calm   1 mph 99.6% 0.00 in 246 W/m2
06:44 50.5 °F 50.1 °F 30.00 in ESE 0.5 mph 1 mph 98.5% 0.00 in 264 W/m2
06:49 51.1 °F 50.3 °F 30.00 in ESE 0.3 mph 2 mph 97.1% 0.00 in 280 W/m2
06:54 51.5 °F 50.2 °F 30.00 in ESE 0.6 mph 2 mph 95.1% 0.00 in 296 W/m2
06:59 51.6 °F 49.8 °F 30.00 in SE 0.5 mph 2 mph 93.4% 0.00 in 313 W/m2
07:04 51.8 °F 49.6 °F 30.00 in SE 0.4 mph 2 mph 92.2% 0.00 in 327 W/m2
07:09 52.2 °F 49.8 °F 30.00 in South 1.1 mph 2 mph 91.3% 0.00 in 341 W/m2
07:14 52.4 °F 49.5 °F 30.00 in SSW 1.4 mph 3 mph 89.9% 0.00 in 359 W/m2
07:19 52.7 °F 49.5 °F 30.00 in SSW 1.4 mph 4 mph 89% 0.00 in 380 W/m2
07:24 53.2 °F 49.8 °F 30.00 in SSW 2.1 mph 5 mph 88.2% 0.00 in 394 W/m2
07:29 53.6 °F 49.9 °F 30.01 in South 0.8 mph 3 mph 87.4% 0.00 in 412 W/m2
07:34 54.2 °F 50.2 °F 30.01 in SSW 1.8 mph 5 mph 86.5% 0.00 in 429 W/m2
07:39 54.4 °F 49.9 °F 30.01 in SSW 2.5 mph 5 mph 84.7% 0.00 in 438 W/m2
07:44 54.8 °F 49.9 °F 30.02 in SSW 2.4 mph 5 mph 83.7% 0.00 in 461 W/m2
07:49 55.3 °F 50.2 °F 30.02 in SW 3 mph 6 mph 82.9% 0.00 in 477 W/m2
07:54 55.7 °F 50.1 °F 30.02 in SSW 2.6 mph 7 mph 81.2% 0.00 in 493 W/m2
07:59 56.1 °F 49.9 °F 30.02 in SSW 3.1 mph 7 mph 79.5% 0.00 in 507 W/m2
08:04 56.7 °F 49.9 °F 30.02 in SW 3.3 mph 6 mph 78.1% 0.00 in 514 W/m2
08:09 57.5 °F 49.7 °F 30.02 in SW 2.8 mph 7 mph 75.2% 0.00 in 540 W/m2
08:14 58.1 °F 49.3 °F 30.02 in SW 1.8 mph 7 mph 72.6% 0.00 in 554 W/m2
08:19 58.7 °F 49.8 °F 30.02 in SSW 1 mph 5 mph 72.1% 0.00 in 572 W/m2
08:24 59.4 °F 49.5 °F 30.02 in South 0.5 mph 2 mph 69.9% 0.00 in 591 W/m2
08:29 60 °F 48.6 °F 30.03 in NW 0.9 mph 2 mph 65.9% 0.00 in 609 W/m2
08:34 60.5 °F 47.7 °F 30.03 in ENE 0.8 mph 3 mph 62.7% 0.00 in 625 W/m2
08:39 61 °F 47.4 °F 30.03 in South 0.7 mph 3 mph 60.9% 0.00 in 651 W/m2
08:44 61.7 °F 48 °F 30.03 in East 0.9 mph 2 mph 60.9% 0.00 in 688 W/m2
08:49 62.1 °F 47.5 °F 30.03 in North 0.6 mph 2 mph 58.8% 0.00 in 688 W/m2
08:54 62.1 °F 46.8 °F 30.03 in NNE 1 mph 3 mph 57.4% 0.00 in 737 W/m2
08:59 62.2 °F 47.3 °F 30.03 in North 1.1 mph 3 mph 58% 0.00 in 751 W/m2
09:04 62.6 °F 47 °F 30.03 in NW 0.5 mph 2 mph 56.6% 0.00 in 795 W/m2
09:09 63.4 °F 47 °F 30.03 in WNW 0.8 mph 3 mph 55% 0.00 in 774 W/m2
09:14 63.7 °F 46.3 °F 30.04 in WSW 1 mph 3 mph 53.1% 0.00 in 813 W/m2
09:19 63.8 °F 47.4 °F 30.04 in SSW 1.3 mph 5 mph 55.2% 0.00 in 887 W/m2
09:24 63.7 °F 45.7 °F 30.04 in North 0.8 mph 3 mph 51.9% 0.00 in 887 W/m2
09:29 63.2 °F 45.3 °F 30.05 in SE 0.5 mph 2 mph 52.1% 0.00 in 202 W/m2
09:34 63 °F 45.7 °F 30.05 in East 0.9 mph 2 mph 53.3% 0.00 in 962 W/m2
09:39 63.9 °F 45.9 °F 30.05 in North 0.6 mph 3 mph 51.9% 0.00 in 941 W/m2
09:44 64.3 °F 45.9 °F 30.05 in SE 0.8 mph 2 mph 51.1% 0.00 in 978 W/m2
09:49 64.4 °F 45.9 °F 30.05 in WSW 0.7 mph 2 mph 51.1% 0.00 in 978 W/m2
09:54 63.8 °F 45.6 °F 30.05 in North 0.5 mph 2 mph 51.6% 0.00 in 164 W/m2
09:59 63.1 °F 45.8 °F 30.05 in NW 0.4 mph 2 mph 53.2% 0.00 in 945 W/m2
10:04 62.9 °F 44 °F 30.05 in South 0.9 mph 3 mph 50% 0.00 in 1006 W/m2
10:09 63.2 °F 43.7 °F 30.05 in South 1.6 mph 7 mph 48.8% 0.00 in 1006 W/m2
10:14 62.9 °F 43.1 °F 30.05 in NW 1.1 mph 7 mph 48.3% 0.00 in 190 W/m2
10:19 62.4 °F 44 °F 30.05 in WNW 0.5 mph 5 mph 50.9% 0.00 in 1119 W/m2
10:24 62.4 °F 42.9 °F 30.05 in NNW 1 mph 3 mph 48.8% 0.00 in 1119 W/m2
10:29 62.6 °F 44.4 °F 30.06 in ENE 1.5 mph 6 mph 51.3% 0.00 in 1119 W/m2
10:34 63.1 °F 44.7 °F 30.06 in ESE 1.7 mph 6 mph 51.2% 0.00 in 1089 W/m2
10:39 63.2 °F 46 °F 30.06 in SW 1.1 mph 6 mph 53.4% 0.00 in 202 W/m2
10:44 63 °F 43 °F 30.07 in North 1.7 mph 6 mph 47.9% 0.00 in 1130 W/m2
10:49 62.8 °F 41.7 °F 30.07 in WNW 1.4 mph 5 mph 46% 0.00 in 1130 W/m2
10:54 62.9 °F 42.6 °F 30.07 in NW 0.7 mph 2 mph 47.5% 0.00 in 276 W/m2
10:59 63.2 °F 43.6 °F 30.07 in NNW 0.6 mph 2 mph 48.7% 0.00 in 1138 W/m2
11:04 63.3 °F 42.7 °F 30.07 in NW 1.1 mph 3 mph 46.9% 0.00 in 1049 W/m2
11:09 64.1 °F 43.3 °F 30.07 in ESE 1.2 mph 6 mph 46.7% 0.00 in 1026 W/m2
11:14 65 °F 42.9 °F 30.07 in East 2.8 mph 9 mph 44.6% 0.00 in 1063 W/m2
11:19 65.5 °F 43.4 °F 30.07 in NE 2.8 mph 9 mph 44.7% 0.00 in 1105 W/m2
11:24 65.6 °F 42.4 °F 30.07 in ENE 1.5 mph 7 mph 42.9% 0.00 in 1165 W/m2
11:29 65.9 °F 42.9 °F 30.08 in WNW 1.2 mph 3 mph 43.3% 0.00 in 1211 W/m2
11:34 66.1 °F 41.6 °F 30.08 in North 1.5 mph 4 mph 40.9% 0.00 in 1211 W/m2
11:39 66.4 °F 44.1 °F 30.08 in ENE 3 mph 8 mph 44.5% 0.00 in 1140 W/m2
11:44 66.8 °F 44.9 °F 30.08 in ENE 1.8 mph 8 mph 45.2% 0.00 in 1140 W/m2
11:49 66.6 °F 44.2 °F 30.07 in East 1.5 mph 6 mph 44.2% 0.00 in 324 W/m2
11:54 66.1 °F 42.7 °F 30.07 in East 1.8 mph 5 mph 42.6% 0.00 in 324 W/m2
11:59 65.3 °F 42.9 °F 30.08 in NE 1.1 mph 5 mph 44.1% 0.00 in 241 W/m2
12:04 65.3 °F 44.7 °F 30.08 in ENE 1.1 mph 3 mph 47.3% 0.00 in 241 W/m2
12:09 65.3 °F 44.2 °F 30.08 in East 1.8 mph 6 mph 46.2% 0.00 in 1177 W/m2
12:14 66.1 °F 44.8 °F 30.08 in ESE 1.4 mph 6 mph 46.2% 0.00 in 1121 W/m2
12:19 66.5 °F 44.1 °F 30.07 in East 2.4 mph 9 mph 44.3% 0.00 in 1105 W/m2
12:24 66.9 °F 44.5 °F 30.07 in East 1.3 mph 4 mph 44.5% 0.00 in 1015 W/m2
12:29 66.8 °F 44.5 °F 30.07 in North 0.8 mph 3 mph 44.5% 0.00 in 1184 W/m2
12:34 66.8 °F 44.5 °F 30.07 in ENE 2.6 mph 7 mph 44.4% 0.00 in 320 W/m2
12:39 66.8 °F 45.3 °F 30.07 in NW 0.5 mph 6 mph 45.8% 0.00 in 1158 W/m2
12:44 67.2 °F 43.8 °F 30.07 in East 2.5 mph 6 mph 42.7% 0.00 in 1158 W/m2
12:49 67.4 °F 42.8 °F 30.07 in NE 1.5 mph 5 mph 40.8% 0.00 in 1156 W/m2
12:54 68 °F 44.4 °F 30.07 in NE 2.6 mph 11 mph 42.7% 0.00 in 1109 W/m2
12:59 68.4 °F 43.3 °F 30.08 in South 1.4 mph 11 mph 40.2% 0.00 in 1130 W/m2
13:04 68.7 °F 44.4 °F 30.08 in NE 2.3 mph 6 mph 41.5% 0.00 in 1232 W/m2
13:09 68.4 °F 42.6 °F 30.08 in ENE 3.1 mph 10 mph 39.1% 0.00 in 269 W/m2
13:14 67.6 °F 43.3 °F 30.08 in ENE 2.2 mph 8 mph 41.4% 0.00 in 269 W/m2
13:19 67.2 °F 43.7 °F 30.08 in ENE 1.7 mph 8 mph 42.6% 0.00 in 1232 W/m2
13:24 67 °F 43 °F 30.08 in East 1.3 mph 6 mph 41.8% 0.00 in 1232 W/m2
13:29 67.2 °F 44.7 °F 30.09 in NE 2.1 mph 7 mph 44.2% 0.00 in 1175 W/m2
13:34 67.7 °F 43.1 °F 30.09 in WNW 0.7 mph 4 mph 41% 0.00 in 1158 W/m2
13:39 68.2 °F 42.5 °F 30.09 in North 1.1 mph 3 mph 39.3% 0.00 in 1096 W/m2
13:44 68.1 °F 41.7 °F 30.09 in ESE 1.3 mph 3 mph 38.2% 0.00 in 1096 W/m2
13:49 67.6 °F 42.4 °F 30.08 in West 0.5 mph 2 mph 40% 0.00 in 278 W/m2
13:54 67.3 °F 42.7 °F 30.08 in West 0.4 mph 2 mph 40.8% 0.00 in 1123 W/m2
13:59 67.4 °F 42.5 °F 30.09 in WSW 1 mph 3 mph 40.3% 0.00 in 1137 W/m2
14:04 67.9 °F 41.8 °F 30.09 in North 0.5 mph 3 mph 38.8% 0.00 in 264 W/m2
14:09 68.1 °F 43.2 °F 30.09 in ENE 0.9 mph 3 mph 40.5% 0.00 in 252 W/m2
14:14 68 °F 43.5 °F 30.10 in NNW 0.6 mph 2 mph 41% 0.00 in 252 W/m2
14:19 67.7 °F 43.1 °F 30.10 in WSW 0.2 mph 1 mph 40.9% 0.00 in 239 W/m2
14:24 67.4 °F 41.8 °F 30.10 in West 0.9 mph 6 mph 39.3% 0.00 in 723 W/m2
14:29 67.3 °F 42.2 °F 30.10 in NNW 0.9 mph 3 mph 40% 0.00 in 315 W/m2
14:34 67.5 °F 42.5 °F 30.10 in WNW 0.4 mph 2 mph 40.2% 0.00 in 195 W/m2
14:39 67.5 °F 43 °F 30.10 in East 1.3 mph 5 mph 41.1% 0.00 in 308 W/m2
14:44 67 °F 42.2 °F 30.10 in West 1 mph 5 mph 40.5% 0.00 in 308 W/m2
14:49 66.7 °F 42.1 °F 30.10 in NE 0.7 mph 2 mph 40.7% 0.00 in 331 W/m2
14:54 66.9 °F 42.4 °F 30.10 in SSW 1 mph 3 mph 40.9% 0.00 in 188 W/m2
14:59 66.9 °F 43.1 °F 30.10 in SW 0.2 mph 3 mph 42% 0.00 in 257 W/m2
15:04 67 °F 43 °F 30.10 in North 0.8 mph 3 mph 41.7% 0.00 in 278 W/m2
15:09 67.4 °F 42.7 °F 30.10 in North 0.5 mph 2 mph 40.6% 0.00 in 304 W/m2
15:14 67.7 °F 44 °F 30.10 in ENE 0.8 mph 2 mph 42.3% 0.00 in 524 W/m2
15:19 67.7 °F 41.6 °F 30.10 in SW 0.3 mph 2 mph 38.6% 0.00 in 229 W/m2
15:24 67.6 °F 43 °F 30.10 in NW 0.1 mph 1 mph 40.9% 0.00 in 157 W/m2
15:29 67.3 °F 41.8 °F 30.10 in Calm   1 mph 39.4% 0.00 in 201 W/m2
15:34 67.3 °F 43.1 °F 30.10 in Calm     41.5% 0.00 in 215 W/m2
15:39 67.4 °F 43.1 °F 30.10 in NE 0.3 mph 2 mph 41.4% 0.00 in 183 W/m2
15:44 67.5 °F 44.6 °F 30.10 in NE 1.1 mph 4 mph 43.6% 0.00 in 143 W/m2
15:49 67.7 °F 44.8 °F 30.10 in ENE 1.2 mph 4 mph 43.6% 0.00 in 130 W/m2
15:54 67.6 °F 42.5 °F 30.10 in ENE 1.7 mph 5 mph 40.1% 0.00 in 143 W/m2
15:59 67.4 °F 42.2 °F 30.10 in ENE 3.7 mph 8 mph 39.9% 0.00 in 164 W/m2
16:04 67.4 °F 43.3 °F 30.10 in North 0.7 mph 5 mph 41.6% 0.00 in 187 W/m2
16:09 67.7 °F 44.5 °F 30.10 in East 0.3 mph 2 mph 43.1% 0.00 in 164 W/m2
16:14 67.9 °F 44.1 °F 30.11 in Calm     42.2% 0.00 in 104 W/m2
16:19 67.8 °F 44.2 °F 30.11 in Calm     42.5% 0.00 in 148 W/m2
16:24 67.6 °F 43.9 °F 30.11 in SSW 0.8 mph 3 mph 42.3% 0.00 in 185 W/m2
16:29 67.4 °F 42.6 °F 30.11 in South 1 mph 3 mph 40.5% 0.00 in 162 W/m2
16:34 67.4 °F 41.9 °F 30.11 in SSE 0.4 mph 2 mph 39.5% 0.00 in 162 W/m2
16:39 67.4 °F 41.8 °F 30.11 in Calm     39.2% 0.00 in 102 W/m2
16:44 67.4 °F 42.4 °F 30.11 in South 0.2 mph 1 mph 40.3% 0.00 in 130 W/m2
16:49 67.5 °F 43.4 °F 30.11 in SSE 1.7 mph 5 mph 41.7% 0.00 in 100 W/m2
16:54 67.4 °F 43.5 °F 30.11 in SSW 0.6 mph 5 mph 42% 0.00 in 114 W/m2
16:59 67.3 °F 46.1 °F 30.11 in Calm   1 mph 46.5% 0.00 in 111 W/m2
17:04 67.2 °F 44.7 °F 30.11 in SSW 0.1 mph 1 mph 44.1% 0.00 in 185 W/m2
17:09 67.3 °F 43.4 °F 30.11 in South 0.4 mph 2 mph 41.9% 0.00 in 128 W/m2
17:14 67.4 °F 43.3 °F 30.11 in NW 1.3 mph 5 mph 41.7% 0.00 in 63 W/m2
17:19 67.6 °F 42.3 °F 30.11 in NW 0.1 mph 5 mph 39.7% 0.00 in 58 W/m2
17:24 67.8 °F 42.5 °F 30.11 in NW 0.4 mph 2 mph 39.9% 0.00 in 58 W/m2
17:29 67.9 °F 43.7 °F 30.12 in South 0.2 mph 1 mph 41.6% 0.00 in 56 W/m2
17:34 67.8 °F 43.5 °F 30.12 in ESE 0.2 mph 2 mph 41.4% 0.00 in 33 W/m2
17:39 67.6 °F 44.2 °F 30.12 in ESE 0.1 mph 1 mph 42.7% 0.00 in 67 W/m2
17:44 67.4 °F 43.5 °F 30.12 in SSW 0.7 mph 2 mph 41.9% 0.00 in 65 W/m2
17:49 67.3 °F 42.2 °F 30.12 in SSW 0.2 mph 1 mph 40% 0.00 in 67 W/m2
17:54 67.3 °F 43.5 °F 30.12 in Calm     42.1% 0.00 in 55 W/m2
17:59 67.3 °F 44.2 °F 30.13 in SE 0.7 mph 2 mph 43.3% 0.00 in 53 W/m2
18:04 67.3 °F 43.3 °F 30.13 in SSE 0.4 mph 2 mph 41.7% 0.00 in 53 W/m2
18:09 67.3 °F 43.5 °F 30.13 in East 0.1 mph 1 mph 42% 0.00 in 49 W/m2
18:14 67.3 °F 43.6 °F 30.13 in ESE 0.1 mph 1 mph 42.2% 0.00 in 51 W/m2
18:19 67.3 °F 43.3 °F 30.13 in ESE 0.2 mph 1 mph 41.8% 0.00 in 46 W/m2
18:24 67.4 °F 45.6 °F 30.13 in SE 0.1 mph 1 mph 45.5% 0.00 in 42 W/m2
18:29 67.4 °F 47.5 °F 30.13 in SE 0.2 mph 2 mph 48.9% 0.00 in 40 W/m2
18:34 67.3 °F 46.6 °F 30.13 in Calm     47.4% 0.00 in 40 W/m2
18:39 67.2 °F 45.6 °F 30.13 in ENE 0.2 mph 1 mph 45.9% 0.00 in 39 W/m2
18:44 67.1 °F 44.3 °F 30.14 in NE 0.3 mph 1 mph 43.6% 0.00 in 39 W/m2
18:49 67.1 °F 48.1 °F 30.14 in Calm   1 mph 50.5% 0.00 in 37 W/m2
18:54 67 °F 50.4 °F 30.14 in NE 0.2 mph 2 mph 55.3% 0.00 in 39 W/m2
18:59 66.6 °F 50.8 °F 30.14 in NNE 0.1 mph 2 mph 56.8% 0.00 in 39 W/m2
19:04 66 °F 50.6 °F 30.14 in Calm   1 mph 57.6% 0.00 in 35 W/m2
19:09 65.6 °F 52.1 °F 30.14 in Calm     61.6% 0.00 in 35 W/m2
19:14 65.2 °F 52.2 °F 30.14 in Calm     62.8% 0.00 in 40 W/m2
19:19 64.7 °F 52.3 °F 30.14 in Calm     64.1% 0.00 in 39 W/m2
19:24 64.2 °F 52.9 °F 30.14 in Calm     66.7% 0.00 in 32 W/m2
19:29 63.7 °F 53.3 °F 30.14 in Calm     68.9% 0.00 in 30 W/m2
19:34 63 °F 53.2 °F 30.14 in Calm     70.1% 0.00 in 28 W/m2
19:39 62.4 °F 52.9 °F 30.14 in Calm     71% 0.00 in 23 W/m2
19:44 61.8 °F 52.3 °F 30.15 in Calm     71% 0.00 in 18 W/m2
19:49 61.2 °F 52.1 °F 30.15 in Calm     72% 0.00 in 14 W/m2
19:54 60.7 °F 51.7 °F 30.15 in Calm     72.1% 0.00 in 14 W/m2
19:59 60.3 °F 51.6 °F 30.16 in Calm     73.1% 0.00 in 12 W/m2
20:04 60 °F 51.9 °F 30.16 in Calm     74.6% 0.00 in 12 W/m2
20:09 59.6 °F 51.7 °F 30.16 in Calm     75% 0.00 in 12 W/m2
20:14 59.3 °F 51.7 °F 30.16 in Calm     75.8% 0.00 in 11 W/m2
20:19 58.9 °F 51.3 °F 30.16 in Calm     76% 0.00 in 9 W/m2
20:24 58.5 °F 51.2 °F 30.16 in Calm     76.5% 0.00 in 9 W/m2
20:29 58.2 °F 51.1 °F 30.16 in Calm     77.3% 0.00 in 7 W/m2
20:34 57.9 °F 51.1 °F 30.16 in Calm     78% 0.00 in 7 W/m2
20:39 57.4 °F 50.6 °F 30.16 in Calm     78% 0.00 in 5 W/m2
20:44 57 °F 50.6 °F 30.18 in Calm     78.9% 0.00 in 5 W/m2
20:49 56.7 °F 50.6 °F 30.18 in Calm     80% 0.00 in 0 W/m2
20:54 56.3 °F 50.6 °F 30.18 in Calm     80.9% 0.00 in 0 W/m2
20:59 56 °F 50.5 °F 30.18 in Calm     81.8% 0.00 in 0 W/m2
21:04 55.6 °F 50.2 °F 30.18 in Calm     82% 0.00 in 0 W/m2
21:09 55.2 °F 50.1 °F 30.18 in Calm     83% 0.00 in 0 W/m2
21:14 54.8 °F 49.8 °F 30.19 in Calm     83.1% 0.00 in 0 W/m2
21:19 54.5 °F 49.8 °F 30.19 in Calm     84% 0.00 in 0 W/m2
21:24 54.3 °F 49.6 °F 30.19 in Calm     84.3% 0.00 in 0 W/m2
21:29 54 °F 49.6 °F 30.20 in Calm     85% 0.00 in 0 W/m2
21:34 53.7 °F 49.6 °F 30.20 in Calm     85.8% 0.00 in 0 W/m2
21:39 53.4 °F 49.4 °F 30.20 in Calm     86% 0.00 in 0 W/m2
21:44 53.2 °F 49.1 °F 30.21 in Calm     86% 0.00 in 0 W/m2
21:49 52.9 °F 49.1 °F 30.21 in Calm     86.8% 0.00 in 0 W/m2
21:54 52.6 °F 48.9 °F 30.21 in Calm     87% 0.00 in 0 W/m2
21:59 52.4 °F 48.9 °F 30.22 in Calm     88% 0.00 in 0 W/m2
22:04 52.2 °F 48.7 °F 30.22 in Calm     88% 0.00 in 0 W/m2
22:09 51.9 °F 48.5 °F 30.22 in Calm     88% 0.00 in 0 W/m2
22:14 51.7 °F 48.5 °F 30.22 in Calm     88.8% 0.00 in 0 W/m2
22:19 51.6 °F 48.5 °F 30.22 in Calm     89.3% 0.00 in 0 W/m2
22:24 51.3 °F 48.5 °F 30.22 in Calm     90% 0.00 in 0 W/m2
22:29 51.1 °F 48.3 °F 30.23 in Calm     90% 0.00 in 0 W/m2
22:34 50.9 °F 48.4 °F 30.23 in Calm     91% 0.00 in 0 W/m2
22:39 50.8 °F 48.2 °F 30.23 in Calm     91% 0.00 in 0 W/m2
22:44 50.5 °F 48.1 °F 30.23 in Calm     91.1% 0.00 in 0 W/m2
22:49 50.4 °F 48.2 °F 30.23 in Calm     92% 0.00 in 0 W/m2
22:54 50.3 °F 48 °F 30.23 in Calm     92% 0.00 in 0 W/m2
22:59 50 °F 47.8 °F 30.24 in Calm     92% 0.00 in 0 W/m2
23:04 49.8 °F 47.8 °F 30.24 in Calm     92.8% 0.00 in 0 W/m2
23:09 49.7 °F 47.7 °F 30.24 in Calm     93% 0.00 in 0 W/m2
23:14 49.6 °F 47.7 °F 30.24 in Calm     93.2% 0.00 in 0 W/m2
23:19 49.5 °F 47.7 °F 30.24 in Calm     93.6% 0.00 in 0 W/m2
23:24 49.3 °F 47.6 °F 30.24 in Calm     94% 0.00 in 0 W/m2
23:29 49.1 °F 47.4 °F 30.24 in Calm     94% 0.00 in 0 W/m2
23:34 48.9 °F 47.2 °F 30.24 in Calm     94% 0.00 in 0 W/m2
23:39 48.8 °F 47.4 °F 30.24 in Calm     94.9% 0.00 in 0 W/m2
23:44 48.6 °F 47.2 °F 30.25 in Calm     95% 0.00 in 0 W/m2
23:49 48.5 °F 47.2 °F 30.25 in Calm     95% 0.00 in 0 W/m2
23:54 48.3 °F 47 °F 30.25 in Calm     95% 0.00 in 0 W/m2
23:59 48.3 °F 47.2 °F 30.25 in Calm     96% 0.00 in 0 W/m2
Lisbon, New Hampshire, USA
Compliments of Weather Underground - 4 mb